Time;durP1;ratioP1;P1;durP2;ratioP2;P2;SDS_P1;SDS_P2;PMS_P1;PMS_P2;Temp;Humidity;BMP_temperature;BMP_pressure;BME280_temperature;BME280_humidity;BME280_pressure;Samples;Min_cycle;Max_cycle;Signal;HPM_P1;HPM_P2
2023/01/28 00:00:25;;;;;;;56.37;33.60;;;;;;;;;;5105867;28;20171;-79
2023/01/28 00:02:51;;;;;;;55.30;33.57;;;;;;;;;;5104727;28;20588;-78
2023/01/28 00:05:17;;;;;;;54.77;34.50;;;;;;;;;;5117698;28;20191;-79
2023/01/28 00:07:43;;;;;;;56.80;32.43;;;;;;;;;;5115204;28;20252;-79
2023/01/28 00:10:10;;;;;;;59.53;32.83;;;;;;;;;;5106068;28;20642;-80
2023/01/28 00:12:36;;;;;;;60.40;33.50;;;;;;;;;;5109999;28;20240;-80
2023/01/28 00:15:02;;;;;;;55.67;33.33;;;;;;;;;;5119615;28;20214;-79
2023/01/28 00:17:28;;;;;;;55.10;32.90;;;;;;;;;;5100255;28;20173;-79
2023/01/28 00:19:54;;;;;;;53.43;32.37;;;;;;;;;;5112376;28;20215;-79
2023/01/28 00:22:20;;;;;;;54.33;32.63;;;;;;;;;;5106598;28;20523;-79
2023/01/28 00:24:46;;;;;;;52.03;30.30;;;;;;;;;;5094037;28;20541;-79
2023/01/28 00:27:12;;;;;;;57.07;33.00;;;;;;;;;;5106999;28;20275;-79
2023/01/28 00:29:38;;;;;;;51.47;32.10;;;;;;;;;;5111558;28;20180;-79
2023/01/28 00:32:04;;;;;;;52.43;30.67;;;;;;;;;;5107446;27;20252;-79
2023/01/28 00:34:30;;;;;;;52.97;32.47;;;;;;;;;;5116472;27;20225;-78
2023/01/28 00:36:56;;;;;;;46.47;30.10;;;;;;;;;;5097600;27;20645;-79
2023/01/28 00:39:24;;;;;;;53.80;32.73;;;;;;;;;;5117389;27;20187;-79
2023/01/28 00:41:51;;;;;;;53.83;31.30;;;;;;;;;;5107661;27;20187;-79
2023/01/28 00:44:17;;;;;;;51.83;32.00;;;;;;;;;;5115801;27;20188;-80
2023/01/28 00:46:43;;;;;;;55.50;33.03;;;;;;;;;;5110950;27;20275;-79
2023/01/28 00:49:09;;;;;;;49.17;30.57;;;;;;;;;;5097796;27;20599;-79
2023/01/28 00:51:35;;;;;;;50.40;31.67;;;;;;;;;;5100288;28;20228;-79
2023/01/28 00:54:01;;;;;;;49.23;31.23;;;;;;;;;;5104242;27;20264;-79
2023/01/28 00:56:27;;;;;;;50.60;30.43;;;;;;;;;;5104167;27;20954;-78
2023/01/28 00:58:53;;;;;;;49.27;30.97;;;;;;;;;;5105636;27;20176;-79
2023/01/28 01:01:20;;;;;;;50.73;32.10;;;;;;;;;;5098965;27;20535;-79
2023/01/28 01:03:46;;;;;;;52.83;31.63;;;;;;;;;;5111586;28;20232;-79
2023/01/28 01:06:13;;;;;;;46.23;31.67;;;;;;;;;;5107471;27;20183;-79
2023/01/28 01:08:41;;;;;;;52.33;31.17;;;;;;;;;;5114681;27;20199;-79
2023/01/28 01:11:08;;;;;;;46.97;30.87;;;;;;;;;;5114146;27;20209;-79
2023/01/28 01:13:34;;;;;;;50.03;31.20;;;;;;;;;;5115531;27;20187;-79
2023/01/28 01:16:11;;;;;;;52.63;31.67;;;;;;;;;;5096719;27;20653;-78
2023/01/28 01:18:40;;;;;;;50.03;31.97;;;;;;;;;;5113995;28;20565;-79
2023/01/28 01:21:07;;;;;;;53.27;32.63;;;;;;;;;;5103465;27;20242;-79
2023/01/28 01:23:33;;;;;;;51.93;31.43;;;;;;;;;;5108199;27;20281;-79
2023/01/28 01:25:59;;;;;;;51.27;31.93;;;;;;;;;;5108417;28;20386;-79
2023/01/28 01:28:25;;;;;;;51.33;32.43;;;;;;;;;;5114959;28;20178;-79
2023/01/28 01:30:58;;;;;;;51.93;33.43;;;;;;;;;;5112416;28;20204;-79
2023/01/28 01:33:24;;;;;;;47.10;31.43;;;;;;;;;;5106720;28;20226;-79
2023/01/28 01:35:54;;;;;;;55.83;33.40;;;;;;;;;;5103980;27;20176;-79
2023/01/28 01:38:20;;;;;;;51.57;31.73;;;;;;;;;;5109802;27;20310;-78
2023/01/28 01:40:46;;;;;;;52.37;31.53;;;;;;;;;;5096876;27;20264;-79
2023/01/28 01:43:21;;;;;;;50.50;30.40;;;;;;;;;;5112407;27;20191;-79
2023/01/28 01:45:53;;;;;;;50.57;31.50;;;;;;;;;;5110026;28;20159;-79
2023/01/28 01:48:24;;;;;;;49.53;31.03;;;;;;;;;;5107353;27;20258;-79
2023/01/28 01:50:56;;;;;;;50.20;31.23;;;;;;;;;;5106417;27;20172;-79
2023/01/28 01:53:23;;;;;;;58.13;32.57;;;;;;;;;;5107484;27;20207;-78
2023/01/28 01:55:50;;;;;;;55.70;33.03;;;;;;;;;;5100677;27;20180;-79
2023/01/28 01:58:18;;;;;;;49.33;31.23;;;;;;;;;;5097164;27;20536;-79
2023/01/28 02:00:45;;;;;;;53.47;31.90;;;;;;;;;;5103134;28;20252;-80
2023/01/28 02:03:11;;;;;;;52.33;31.63;;;;;;;;;;5104572;27;20189;-79
2023/01/28 02:05:37;;;;;;;53.73;31.20;;;;;;;;;;5103732;27;20680;-79
2023/01/28 02:08:22;;;;;;;55.37;31.97;;;;;;;;;;5109136;27;20183;-79
2023/01/28 02:10:50;;;;;;;73.03;39.33;;;;;;;;;;5113163;27;20658;-79
2023/01/28 02:13:17;;;;;;;61.00;35.57;;;;;;;;;;5096091;27;20566;-79
2023/01/28 02:15:44;;;;;;;58.37;34.70;;;;;;;;;;5092996;28;20260;-79
2023/01/28 02:18:10;;;;;;;55.77;34.17;;;;;;;;;;5101455;27;20184;-80
2023/01/28 02:20:54;;;;;;;54.47;31.80;;;;;;;;;;5102678;27;20185;-79
2023/01/28 02:23:20;;;;;;;58.53;32.87;;;;;;;;;;5106363;27;20663;-79
2023/01/28 02:25:59;;;;;;;53.90;32.00;;;;;;;;;;5114062;27;20214;-79
2023/01/28 02:28:31;;;;;;;58.03;32.23;;;;;;;;;;5096878;27;20190;-79
2023/01/28 02:31:01;;;;;;;53.03;31.90;;;;;;;;;;5098682;28;20295;-79
2023/01/28 02:33:34;;;;;;;62.37;35.67;;;;;;;;;;5101600;27;20203;-80
2023/01/28 02:36:03;;;;;;;56.63;33.37;;;;;;;;;;5104384;27;20271;-79
2023/01/28 02:38:31;;;;;;;57.87;33.93;;;;;;;;;;5099748;27;20184;-78
2023/01/28 02:41:02;;;;;;;55.33;33.03;;;;;;;;;;5098569;27;20180;-79
2023/01/28 02:43:45;;;;;;;62.30;35.23;;;;;;;;;;5096635;27;20183;-80
2023/01/28 02:49:15;;;;;;;63.60;35.67;;;;;;;;;;5110567;27;20190;-79
2023/01/28 02:52:00;;;;;;;64.87;35.20;;;;;;;;;;5095419;28;20574;-79
2023/01/28 02:54:32;;;;;;;58.87;32.83;;;;;;;;;;5108644;28;20190;-79
2023/01/28 02:57:01;;;;;;;56.57;32.87;;;;;;;;;;5105166;27;20180;-79
2023/01/28 02:59:50;;;;;;;57.90;32.40;;;;;;;;;;5097674;27;20541;-79
2023/01/28 03:02:22;;;;;;;56.33;31.90;;;;;;;;;;5102098;27;20199;-79
2023/01/28 03:04:48;;;;;;;54.03;30.60;;;;;;;;;;5100280;27;20186;-79
2023/01/28 03:07:15;;;;;;;53.80;32.40;;;;;;;;;;5095012;28;20177;-79
2023/01/28 03:09:42;;;;;;;53.57;31.47;;;;;;;;;;5098362;28;20214;-78
2023/01/28 03:37:34;;;;;;;44.87;28.57;;;;;;;;;;5101228;28;20190;-79
2023/01/28 03:40:05;;;;;;;45.80;29.27;;;;;;;;;;5108010;28;20598;-79
2023/01/28 03:42:31;;;;;;;48.23;30.20;;;;;;;;;;5123894;27;20175;-80
2023/01/28 03:44:57;;;;;;;48.43;29.83;;;;;;;;;;5126474;28;20189;-79
2023/01/28 03:47:27;;;;;;;43.50;28.80;;;;;;;;;;5124266;28;20284;-80
2023/01/28 03:49:54;;;;;;;46.20;30.07;;;;;;;;;;5113921;28;20280;-79
2023/01/28 03:52:22;;;;;;;47.07;29.20;;;;;;;;;;5092897;28;20220;-78
2023/01/28 03:54:48;;;;;;;41.03;28.60;;;;;;;;;;5112303;28;20542;-79
2023/01/28 03:57:15;;;;;;;47.93;30.37;;;;;;;;;;5101770;28;20237;-79
2023/01/28 03:59:41;;;;;;;44.43;29.17;;;;;;;;;;5102581;28;20644;-79
2023/01/28 04:02:09;;;;;;;47.07;29.70;;;;;;;;;;5112563;28;20281;-79
2023/01/28 04:04:35;;;;;;;44.57;30.13;;;;;;;;;;5113155;27;20649;-79
2023/01/28 04:07:01;;;;;;;45.00;28.60;;;;;;;;;;5098573;28;20180;-79
2023/01/28 04:09:27;;;;;;;48.40;30.10;;;;;;;;;;5105270;27;20188;-79
2023/01/28 04:11:53;;;;;;;41.47;28.87;;;;;;;;;;5103749;27;20250;-79
2023/01/28 04:14:20;;;;;;;40.43;27.53;;;;;;;;;;5108521;27;20270;-79
2023/01/28 04:16:45;;;;;;;39.97;26.83;;;;;;;;;;5116645;27;20179;-79
2023/01/28 04:19:12;;;;;;;35.27;26.27;;;;;;;;;;5115531;28;20187;-79
2023/01/28 04:21:39;;;;;;;40.33;25.83;;;;;;;;;;5117930;27;20179;-79
2023/01/28 04:24:05;;;;;;;41.93;26.83;;;;;;;;;;5117744;27;20576;-79
2023/01/28 04:26:31;;;;;;;40.87;26.43;;;;;;;;;;5116764;27;20183;-79
2023/01/28 04:28:57;;;;;;;38.33;26.27;;;;;;;;;;5116503;27;20540;-79
2023/01/28 04:31:23;;;;;;;39.27;25.83;;;;;;;;;;5097436;28;20247;-79
2023/01/28 04:33:49;;;;;;;38.47;25.13;;;;;;;;;;5115626;28;20240;-79
2023/01/28 04:36:15;;;;;;;36.47;24.07;;;;;;;;;;5111491;27;20180;-79
2023/01/28 04:38:41;;;;;;;36.97;25.00;;;;;;;;;;5108389;27;20233;-79
2023/01/28 04:41:07;;;;;;;34.97;24.47;;;;;;;;;;5115214;27;20516;-79
2023/01/28 04:43:33;;;;;;;38.63;25.03;;;;;;;;;;5114852;27;20186;-79
2023/01/28 04:45:59;;;;;;;35.10;23.30;;;;;;;;;;5100220;28;20714;-79
2023/01/28 04:48:25;;;;;;;36.27;24.47;;;;;;;;;;5102541;27;20213;-79
2023/01/28 04:50:51;;;;;;;35.07;24.03;;;;;;;;;;5104478;27;20189;-79
2023/01/28 04:53:17;;;;;;;34.60;23.50;;;;;;;;;;5105606;27;20288;-80
2023/01/28 04:55:44;;;;;;;36.03;24.17;;;;;;;;;;5115597;27;20278;-79
2023/01/28 04:58:10;;;;;;;32.03;22.13;;;;;;;;;;5114791;28;20180;-79
2023/01/28 05:00:36;;;;;;;33.43;22.60;;;;;;;;;;5110582;27;20180;-79
2023/01/28 05:03:02;;;;;;;33.50;22.87;;;;;;;;;;5115307;27;20187;-79
2023/01/28 05:05:28;;;;;;;35.93;23.20;;;;;;;;;;5116549;27;20624;-79
2023/01/28 05:07:54;;;;;;;35.13;22.57;;;;;;;;;;5112855;27;20173;-79
2023/01/28 05:10:21;;;;;;;32.37;22.33;;;;;;;;;;5098401;27;21167;-79
2023/01/28 05:12:47;;;;;;;35.37;24.17;;;;;;;;;;5101665;28;20208;-80
2023/01/28 05:15:14;;;;;;;34.83;21.97;;;;;;;;;;5112595;27;20732;-79
2023/01/28 05:17:41;;;;;;;34.77;22.83;;;;;;;;;;5111466;27;20649;-79
2023/01/28 05:20:08;;;;;;;35.83;23.27;;;;;;;;;;5101556;27;20220;-79
2023/01/28 05:22:34;;;;;;;36.60;23.07;;;;;;;;;;5115963;27;20187;-79
2023/01/28 05:25:02;;;;;;;36.20;22.37;;;;;;;;;;5115953;27;20179;-79
2023/01/28 05:27:28;;;;;;;36.57;22.93;;;;;;;;;;5104962;27;20188;-79
2023/01/28 05:29:54;;;;;;;35.27;21.77;;;;;;;;;;5110758;27;20232;-79
2023/01/28 05:32:20;;;;;;;34.60;22.63;;;;;;;;;;5113980;27;20227;-79
2023/01/28 05:34:46;;;;;;;34.37;21.17;;;;;;;;;;5113549;27;20679;-80
2023/01/28 05:37:12;;;;;;;33.23;22.53;;;;;;;;;;5097836;28;20195;-79
2023/01/28 05:39:38;;;;;;;31.67;21.17;;;;;;;;;;5115839;27;20647;-79
2023/01/28 05:42:04;;;;;;;34.93;22.70;;;;;;;;;;5106659;27;20273;-78
2023/01/28 05:44:30;;;;;;;31.10;22.10;;;;;;;;;;5100576;28;20640;-79
2023/01/28 05:46:56;;;;;;;34.60;23.13;;;;;;;;;;5117317;27;20202;-79
2023/01/28 05:49:22;;;;;;;36.00;23.27;;;;;;;;;;5115113;27;20198;-79
2023/01/28 05:51:48;;;;;;;34.30;22.27;;;;;;;;;;5101010;27;20207;-79
2023/01/28 05:54:14;;;;;;;30.43;21.63;;;;;;;;;;5102749;27;20238;-79
2023/01/28 05:56:40;;;;;;;29.30;21.07;;;;;;;;;;5102819;27;20203;-78
2023/01/28 05:59:07;;;;;;;33.53;22.87;;;;;;;;;;5101974;27;20648;-79
2023/01/28 06:01:33;;;;;;;30.47;22.43;;;;;;;;;;5111401;27;20568;-79
2023/01/28 06:03:59;;;;;;;28.70;20.77;;;;;;;;;;5113141;27;20172;-78
2023/01/28 06:06:25;;;;;;;33.80;23.67;;;;;;;;;;5100614;27;20192;-79
2023/01/28 06:08:51;;;;;;;31.03;22.77;;;;;;;;;;5108076;27;20661;-79
2023/01/28 06:11:17;;;;;;;35.27;22.77;;;;;;;;;;5098932;27;20180;-79
2023/01/28 06:13:43;;;;;;;33.17;22.67;;;;;;;;;;5097126;27;20567;-78
2023/01/28 06:16:10;;;;;;;31.67;22.10;;;;;;;;;;5109526;28;20254;-79
2023/01/28 06:18:36;;;;;;;32.13;23.03;;;;;;;;;;5101260;27;20621;-79
2023/01/28 06:21:02;;;;;;;34.50;23.37;;;;;;;;;;5102177;27;20271;-79
2023/01/28 06:23:28;;;;;;;34.93;23.63;;;;;;;;;;5102198;27;20686;-79
2023/01/28 06:25:55;;;;;;;33.50;23.87;;;;;;;;;;5099471;27;20191;-79
2023/01/28 06:28:21;;;;;;;32.33;23.17;;;;;;;;;;5096710;28;20554;-80
2023/01/28 06:30:50;;;;;;;34.23;24.37;;;;;;;;;;5101134;27;20225;-79
2023/01/28 06:33:16;;;;;;;32.43;21.63;;;;;;;;;;5100748;27;20684;-79
2023/01/28 06:35:43;;;;;;;35.53;23.97;;;;;;;;;;5102456;27;20191;-79
2023/01/28 06:38:09;;;;;;;31.37;21.67;;;;;;;;;;5099666;27;20221;-78
2023/01/28 06:40:35;;;;;;;33.20;22.83;;;;;;;;;;5095832;27;20187;-79
2023/01/28 06:43:02;;;;;;;33.80;23.30;;;;;;;;;;5098089;28;20180;-79
2023/01/28 06:45:28;;;;;;;46.43;24.77;;;;;;;;;;5100529;27;20192;-78
2023/01/28 06:47:54;;;;;;;36.87;25.07;;;;;;;;;;5107963;27;20184;-79
2023/01/28 06:50:20;;;;;;;33.57;22.73;;;;;;;;;;5111353;28;20183;-79
2023/01/28 06:52:46;;;;;;;36.27;24.87;;;;;;;;;;5112115;27;20256;-80
2023/01/28 06:55:12;;;;;;;37.80;24.87;;;;;;;;;;5095707;28;20588;-79
2023/01/28 06:57:38;;;;;;;42.60;25.90;;;;;;;;;;5101867;27;20215;-79
2023/01/28 07:00:05;;;;;;;52.37;30.57;;;;;;;;;;5108511;27;20222;-79
2023/01/28 07:02:31;;;;;;;44.17;28.33;;;;;;;;;;5104702;27;20239;-79
2023/01/28 07:04:57;;;;;;;42.17;27.43;;;;;;;;;;5114796;27;20640;-79
2023/01/28 07:07:23;;;;;;;39.10;25.87;;;;;;;;;;5113712;27;20182;-80
2023/01/28 07:09:49;;;;;;;39.77;26.27;;;;;;;;;;5118452;27;20168;-79
2023/01/28 07:12:15;;;;;;;36.23;25.43;;;;;;;;;;5105921;27;20614;-79
2023/01/28 07:14:41;;;;;;;37.30;25.23;;;;;;;;;;5101469;27;20179;-79
2023/01/28 07:17:07;;;;;;;42.53;26.53;;;;;;;;;;5098536;27;20187;-79
2023/01/28 07:19:33;;;;;;;38.10;25.73;;;;;;;;;;5099657;27;20629;-79
2023/01/28 07:22:01;;;;;;;41.37;26.93;;;;;;;;;;5129099;27;20168;-79
2023/01/28 07:24:27;;;;;;;42.10;25.10;;;;;;;;;;5116040;28;20172;-79
2023/01/28 07:26:54;;;;;;;43.27;27.00;;;;;;;;;;5111363;28;20180;-79
2023/01/28 07:29:20;;;;;;;37.63;24.17;;;;;;;;;;5107620;28;20578;-79
2023/01/28 07:31:46;;;;;;;42.30;28.40;;;;;;;;;;5097311;28;20228;-79
2023/01/28 07:34:12;;;;;;;42.07;26.77;;;;;;;;;;5106742;28;20184;-79
2023/01/28 07:36:38;;;;;;;42.47;26.27;;;;;;;;;;5097525;28;20191;-78
2023/01/28 07:39:04;;;;;;;65.67;39.83;;;;;;;;;;5102030;28;20180;-79
2023/01/28 07:41:30;;;;;;;51.00;31.57;;;;;;;;;;5106853;28;20171;-79
2023/01/28 07:43:56;;;;;;;48.83;31.23;;;;;;;;;;5106478;28;20271;-79
2023/01/28 07:46:22;;;;;;;45.23;27.37;;;;;;;;;;5095300;28;20523;-78
2023/01/28 07:48:48;;;;;;;43.57;27.40;;;;;;;;;;5096196;28;20172;-79
2023/01/28 07:51:14;;;;;;;41.50;24.90;;;;;;;;;;5097405;28;20713;-79
2023/01/28 07:53:40;;;;;;;39.90;24.30;;;;;;;;;;5094589;28;20242;-79
2023/01/28 07:56:06;;;;;;;39.87;25.27;;;;;;;;;;5108283;28;20218;-80
2023/01/28 07:58:33;;;;;;;42.13;24.90;;;;;;;;;;5093523;28;20652;-78
2023/01/28 08:00:59;;;;;;;33.27;22.80;;;;;;;;;;5108352;28;20533;-79
2023/01/28 08:03:26;;;;;;;39.37;24.43;;;;;;;;;;5110302;28;20194;-79
2023/01/28 08:05:52;;;;;;;38.20;24.63;;;;;;;;;;5103493;28;20264;-79
2023/01/28 08:08:19;;;;;;;39.37;24.33;;;;;;;;;;5107843;28;20213;-79
2023/01/28 08:10:45;;;;;;;40.13;25.03;;;;;;;;;;5091948;28;20555;-79
2023/01/28 08:13:12;;;;;;;38.17;24.00;;;;;;;;;;5105487;28;20255;-79
2023/01/28 08:15:39;;;;;;;35.10;24.03;;;;;;;;;;5097725;28;20303;-79
2023/01/28 08:18:06;;;;;;;33.60;23.27;;;;;;;;;;5097182;28;20195;-80
2023/01/28 08:20:33;;;;;;;41.83;25.73;;;;;;;;;;5101356;28;20181;-78
2023/01/28 08:23:12;;;;;;;46.17;29.40;;;;;;;;;;5106768;28;20344;-80
2023/01/28 08:25:38;;;;;;;36.00;25.57;;;;;;;;;;5093183;28;20214;-77
2023/01/28 08:28:05;;;;;;;36.73;25.03;;;;;;;;;;5105462;28;20168;-80
2023/01/28 08:30:31;;;;;;;36.50;22.87;;;;;;;;;;5097231;28;20212;-80
2023/01/28 08:32:58;;;;;;;34.03;23.17;;;;;;;;;;5096349;28;20281;-80
2023/01/28 08:35:25;;;;;;;32.13;23.23;;;;;;;;;;5094690;28;20206;-80
2023/01/28 08:37:51;;;;;;;34.60;23.30;;;;;;;;;;5092374;28;20180;-79
2023/01/28 08:40:17;;;;;;;35.33;23.83;;;;;;;;;;5109355;28;20344;-80
2023/01/28 08:42:47;;;;;;;30.23;22.30;;;;;;;;;;5097620;28;20192;-80
2023/01/28 08:45:14;;;;;;;34.37;24.03;;;;;;;;;;5101747;28;20184;-80
2023/01/28 08:47:56;;;;;;;29.90;22.23;;;;;;;;;;5106228;28;20187;-80
2023/01/28 08:50:23;;;;;;;48.23;30.07;;;;;;;;;;5097053;28;20204;-80
2023/01/28 08:52:54;;;;;;;53.67;32.27;;;;;;;;;;5094882;28;20215;-80
2023/01/28 08:55:20;;;;;;;42.23;27.67;;;;;;;;;;5115971;28;20172;-80
2023/01/28 08:57:46;;;;;;;32.27;22.73;;;;;;;;;;5105859;28;20655;-80
2023/01/28 09:00:12;;;;;;;35.43;23.27;;;;;;;;;;5110492;28;20383;-79
2023/01/28 09:02:38;;;;;;;32.53;22.53;;;;;;;;;;5111589;28;20188;-80
2023/01/28 09:05:05;;;;;;;29.93;21.80;;;;;;;;;;5111624;28;20187;-80
2023/01/28 09:07:31;;;;;;;28.83;21.30;;;;;;;;;;5099104;28;20274;-78
2023/01/28 09:09:57;;;;;;;31.13;22.37;;;;;;;;;;5115971;28;20180;-78
2023/01/28 09:12:23;;;;;;;33.13;22.80;;;;;;;;;;5105831;28;20706;-79
2023/01/28 09:14:49;;;;;;;32.37;22.60;;;;;;;;;;5101305;28;20185;-81
2023/01/28 09:17:15;;;;;;;32.03;22.97;;;;;;;;;;5097906;28;20180;-78
2023/01/28 09:19:41;;;;;;;32.57;23.27;;;;;;;;;;5094913;28;20206;-78
2023/01/28 09:22:07;;;;;;;29.93;22.97;;;;;;;;;;5096419;28;20191;-78
2023/01/28 09:24:33;;;;;;;31.93;23.20;;;;;;;;;;5110154;28;20190;-79
2023/01/28 09:26:59;;;;;;;31.00;22.50;;;;;;;;;;5112003;28;20187;-77
2023/01/28 09:29:25;;;;;;;33.83;22.90;;;;;;;;;;5113305;28;20179;-81
2023/01/28 09:31:51;;;;;;;35.20;25.00;;;;;;;;;;5096214;28;20231;-79
2023/01/28 09:34:17;;;;;;;32.67;23.47;;;;;;;;;;5100605;28;20182;-78
2023/01/28 09:36:43;;;;;;;32.30;24.03;;;;;;;;;;5099155;28;20198;-79
2023/01/28 09:39:09;;;;;;;31.77;24.47;;;;;;;;;;5106376;28;20181;-79
2023/01/28 09:41:44;;;;;;;31.90;23.23;;;;;;;;;;5110056;28;20214;-78
2023/01/28 09:44:36;;;;;;;34.13;24.83;;;;;;;;;;5111201;28;20282;-78
2023/01/28 09:47:04;;;;;;;33.43;23.20;;;;;;;;;;5092435;28;20672;-78
2023/01/28 09:49:33;;;;;;;32.50;24.57;;;;;;;;;;5107653;28;20258;-81
2023/01/28 09:51:59;;;;;;;37.40;27.60;;;;;;;;;;5097615;28;20197;-76
2023/01/28 09:54:43;;;;;;;33.80;24.93;;;;;;;;;;5098727;28;20632;-78
2023/01/28 09:57:18;;;;;;;34.23;24.47;;;;;;;;;;5097709;28;20187;-79
2023/01/28 09:59:44;;;;;;;34.23;25.23;;;;;;;;;;5097151;28;20210;-79
2023/01/28 10:02:10;;;;;;;35.77;26.33;;;;;;;;;;5097949;28;20223;-79
2023/01/28 10:04:46;;;;;;;31.03;23.43;;;;;;;;;;5097355;28;20547;-79
2023/01/28 10:07:26;;;;;;;35.90;25.73;;;;;;;;;;5096749;28;20709;-79
2023/01/28 10:09:52;;;;;;;39.17;28.10;;;;;;;;;;5101823;28;20195;-79
2023/01/28 10:12:21;;;;;;;39.50;27.33;;;;;;;;;;5103264;28;20214;-78
2023/01/28 10:14:47;;;;;;;44.03;31.30;;;;;;;;;;5104839;28;20580;-79
2023/01/28 10:17:22;;;;;;;41.33;28.70;;;;;;;;;;5109333;28;20214;-78
2023/01/28 10:20:00;;;;;;;36.27;26.77;;;;;;;;;;5098341;28;20284;-79
2023/01/28 10:22:28;;;;;;;36.17;25.67;;;;;;;;;;5108243;28;20567;-79
2023/01/28 10:25:02;;;;;;;36.03;25.77;;;;;;;;;;5097586;28;20176;-79
2023/01/28 10:27:30;;;;;;;35.60;25.73;;;;;;;;;;5104272;28;20195;-79
2023/01/28 10:29:58;;;;;;;34.73;26.03;;;;;;;;;;5105002;28;20723;-79
2023/01/28 10:32:30;;;;;;;36.77;26.83;;;;;;;;;;5096958;28;20222;-78
2023/01/28 10:35:00;;;;;;;39.53;28.43;;;;;;;;;;5100630;28;20180;-79
2023/01/28 10:37:27;;;;;;;42.43;29.80;;;;;;;;;;5101006;28;20194;-79
2023/01/28 10:39:57;;;;;;;44.23;30.03;;;;;;;;;;5097625;28;21393;-79
2023/01/28 10:42:28;;;;;;;36.30;28.73;;;;;;;;;;5104277;28;20192;-78
2023/01/28 10:45:00;;;;;;;34.20;25.80;;;;;;;;;;5104078;28;20204;-80
2023/01/28 10:47:40;;;;;;;34.37;24.53;;;;;;;;;;5096336;28;20188;-78
2023/01/28 10:50:10;;;;;;;37.97;26.73;;;;;;;;;;5104144;28;20259;-78
2023/01/28 10:52:36;;;;;;;38.03;28.20;;;;;;;;;;5097726;28;20222;-79
2023/01/28 10:55:06;;;;;;;35.70;26.10;;;;;;;;;;5111803;28;20240;-79
2023/01/28 10:57:40;;;;;;;38.37;27.03;;;;;;;;;;5106444;28;20172;-78
2023/01/28 11:00:12;;;;;;;38.20;28.57;;;;;;;;;;5104116;28;20279;-78
2023/01/28 11:02:38;;;;;;;41.10;28.03;;;;;;;;;;5102226;28;20180;-79
2023/01/28 11:05:04;;;;;;;32.40;25.73;;;;;;;;;;5093120;28;20222;-78
2023/01/28 11:07:30;;;;;;;32.93;25.20;;;;;;;;;;5090834;28;20176;-79
2023/01/28 11:09:56;;;;;;;29.67;23.13;;;;;;;;;;5097348;28;20180;-80
2023/01/28 11:12:24;;;;;;;34.60;25.50;;;;;;;;;;5100760;28;20285;-79
2023/01/28 11:14:52;;;;;;;31.87;25.73;;;;;;;;;;5099717;28;20230;-79
2023/01/28 11:17:18;;;;;;;36.20;28.30;;;;;;;;;;5105270;28;20181;-80
2023/01/28 11:19:45;;;;;;;38.00;28.93;;;;;;;;;;5093757;28;20593;-79
2023/01/28 11:22:37;;;;;;;32.73;25.70;;;;;;;;;;5097397;28;20569;-78
2023/01/28 11:25:05;;;;;;;33.80;26.10;;;;;;;;;;5097463;28;20191;-79
2023/01/28 11:27:32;;;;;;;37.50;27.73;;;;;;;;;;5101028;28;20525;-79
2023/01/28 11:30:02;;;;;;;36.60;26.27;;;;;;;;;;5106525;28;20183;-78
2023/01/28 11:32:29;;;;;;;30.47;24.20;;;;;;;;;;5094401;28;20756;-79
2023/01/28 11:34:59;;;;;;;31.17;24.83;;;;;;;;;;5093003;28;20188;-78
2023/01/28 11:37:26;;;;;;;32.67;26.17;;;;;;;;;;5099556;28;20604;-78
2023/01/28 11:40:15;;;;;;;35.93;27.00;;;;;;;;;;5097588;28;20210;-78
2023/01/28 11:42:41;;;;;;;40.50;29.00;;;;;;;;;;5099789;28;20317;-78
2023/01/28 11:45:24;;;;;;;41.23;29.23;;;;;;;;;;5100825;28;20263;-79
2023/01/28 11:48:05;;;;;;;33.90;26.10;;;;;;;;;;5101966;28;20175;-77
2023/01/28 11:50:51;;;;;;;32.07;25.63;;;;;;;;;;5099067;28;20195;-78
2023/01/28 11:53:27;;;;;;;33.27;26.00;;;;;;;;;;5091636;28;20226;-78
2023/01/28 11:56:06;;;;;;;31.60;24.20;;;;;;;;;;5094772;28;20255;-78
2023/01/28 11:58:35;;;;;;;35.00;26.40;;;;;;;;;;5103200;28;20198;-78
2023/01/28 12:01:37;;;;;;;33.20;26.63;;;;;;;;;;5101305;28;20655;-78
2023/01/28 12:04:03;;;;;;;36.27;27.50;;;;;;;;;;5025027;28;20194;-78
2023/01/28 12:06:47;;;;;;;36.57;28.37;;;;;;;;;;5021785;28;20202;-78
2023/01/28 12:09:19;;;;;;;35.13;27.83;;;;;;;;;;5026183;28;20190;-79
2023/01/28 12:12:13;;;;;;;35.20;26.50;;;;;;;;;;5026973;28;20831;-78
2023/01/28 12:14:57;;;;;;;35.30;27.40;;;;;;;;;;5010435;28;20214;-79
2023/01/28 12:17:26;;;;;;;36.77;28.60;;;;;;;;;;5026477;28;20186;-78
2023/01/28 12:20:08;;;;;;;37.90;26.97;;;;;;;;;;5026837;28;20175;-79
2023/01/28 12:22:54;;;;;;;35.33;28.33;;;;;;;;;;5027005;28;20178;-78
2023/01/28 12:25:31;;;;;;;32.27;25.47;;;;;;;;;;5001002;28;20210;-80
2023/01/28 12:28:15;;;;;;;34.50;27.03;;;;;;;;;;5017984;28;20191;-79
2023/01/28 12:31:00;;;;;;;34.80;27.60;;;;;;;;;;5028493;28;20297;-79
2023/01/28 12:33:41;;;;;;;33.10;25.83;;;;;;;;;;5025781;28;20298;-82
2023/01/28 12:36:22;;;;;;;31.47;25.00;;;;;;;;;;5020640;28;20183;-79
2023/01/28 12:38:56;;;;;;;34.17;27.23;;;;;;;;;;5086879;28;20657;-78
2023/01/28 12:41:27;;;;;;;36.20;26.37;;;;;;;;;;5094179;28;20184;-79
2023/01/28 12:43:53;;;;;;;32.50;25.63;;;;;;;;;;5112388;28;20237;-79
2023/01/28 12:46:35;;;;;;;31.80;25.10;;;;;;;;;;5101371;28;20625;-79
2023/01/28 12:49:04;;;;;;;28.70;22.83;;;;;;;;;;5101041;28;20183;-79
2023/01/28 12:51:36;;;;;;;31.27;24.40;;;;;;;;;;5103627;28;20183;-80
2023/01/28 12:54:08;;;;;;;33.20;25.83;;;;;;;;;;5110020;28;20245;-80
2023/01/28 12:56:38;;;;;;;34.67;26.70;;;;;;;;;;5109980;28;20187;-80
2023/01/28 12:59:09;;;;;;;35.57;27.00;;;;;;;;;;5094686;28;20684;-79
2023/01/28 13:02:02;;;;;;;29.87;24.20;;;;;;;;;;5097281;28;20172;-79
2023/01/28 13:04:28;;;;;;;36.27;27.77;;;;;;;;;;5071275;28;20193;-80
2023/01/28 13:07:00;;;;;;;36.90;26.43;;;;;;;;;;5051359;28;20200;-80
2023/01/28 13:09:26;;;;;;;47.27;31.80;;;;;;;;;;5050321;28;20197;-79
2023/01/28 13:11:53;;;;;;;44.90;31.33;;;;;;;;;;5043845;28;20199;-79
2023/01/28 13:14:21;;;;;;;39.90;28.83;;;;;;;;;;5052540;28;20188;-79
2023/01/28 13:16:47;;;;;;;41.90;30.27;;;;;;;;;;5080265;28;20282;-79
2023/01/28 13:19:19;;;;;;;37.83;27.90;;;;;;;;;;5055521;28;20185;-81
2023/01/28 13:21:46;;;;;;;42.23;29.70;;;;;;;;;;5044876;28;20189;-80
2023/01/28 13:24:15;;;;;;;41.27;29.00;;;;;;;;;;5060337;28;20189;-79
2023/01/28 13:26:42;;;;;;;37.43;28.20;;;;;;;;;;5069929;28;20213;-80
2023/01/28 13:29:13;;;;;;;36.20;27.07;;;;;;;;;;5051840;28;20318;-80
2023/01/28 13:31:43;;;;;;;36.83;27.87;;;;;;;;;;5043082;28;20229;-78
2023/01/28 13:34:26;;;;;;;34.27;26.80;;;;;;;;;;5060064;28;20197;-81
2023/01/28 13:36:53;;;;;;;35.50;27.20;;;;;;;;;;5062709;28;20188;-78
2023/01/28 13:39:20;;;;;;;35.47;26.93;;;;;;;;;;5045982;28;20190;-80
2023/01/28 13:41:48;;;;;;;34.87;27.40;;;;;;;;;;5086457;28;20257;-79
2023/01/28 13:44:18;;;;;;;35.77;26.00;;;;;;;;;;5104996;28;20662;-79
2023/01/28 13:46:44;;;;;;;35.13;26.80;;;;;;;;;;5092813;28;20192;-78
2023/01/28 13:49:12;;;;;;;32.63;25.37;;;;;;;;;;5102094;28;20188;-78
2023/01/28 13:51:40;;;;;;;37.73;27.87;;;;;;;;;;5098601;28;20179;-79
2023/01/28 13:54:08;;;;;;;35.37;27.43;;;;;;;;;;5095483;28;20264;-79
2023/01/28 13:56:49;;;;;;;39.30;27.53;;;;;;;;;;5107796;28;20189;-77
2023/01/28 13:59:18;;;;;;;41.37;30.57;;;;;;;;;;5109471;28;20188;-78
2023/01/28 14:01:53;;;;;;;37.60;28.80;;;;;;;;;;5105615;28;20176;-77
2023/01/28 14:04:42;;;;;;;37.10;26.63;;;;;;;;;;5101258;28;20656;-79
2023/01/28 14:07:27;;;;;;;36.80;26.90;;;;;;;;;;5096987;28;20299;-78
2023/01/28 14:10:11;;;;;;;30.67;23.63;;;;;;;;;;5103622;28;20206;-79
2023/01/28 14:12:50;;;;;;;31.50;24.07;;;;;;;;;;5098329;28;20664;-79
2023/01/28 14:15:25;;;;;;;34.87;23.73;;;;;;;;;;5100006;28;20211;-77
2023/01/28 14:17:53;;;;;;;32.80;24.13;;;;;;;;;;5108878;28;20214;-79
2023/01/28 14:20:39;;;;;;;36.60;25.07;;;;;;;;;;5109848;28;20296;-78
2023/01/28 14:23:06;;;;;;;37.23;24.77;;;;;;;;;;5099805;28;20180;-78
2023/01/28 14:25:58;;;;;;;31.20;22.10;;;;;;;;;;5111681;28;20167;-78
2023/01/28 14:28:33;;;;;;;28.30;21.40;;;;;;;;;;5100895;28;20206;-79
2023/01/28 14:31:08;;;;;;;34.47;24.53;;;;;;;;;;5101709;27;20179;-78
2023/01/28 14:33:35;;;;;;;32.80;24.27;;;;;;;;;;5099398;28;20202;-78
2023/01/28 14:36:02;;;;;;;33.03;24.50;;;;;;;;;;5094918;28;20211;-79
2023/01/28 14:38:28;;;;;;;30.03;22.83;;;;;;;;;;5104925;28;21117;-78
2023/01/28 14:40:55;;;;;;;32.00;23.53;;;;;;;;;;5106542;28;20180;-78
2023/01/28 14:43:22;;;;;;;26.77;21.70;;;;;;;;;;5101759;28;20187;-78
2023/01/28 14:45:48;;;;;;;27.73;21.70;;;;;;;;;;5099038;28;20183;-78
2023/01/28 14:48:20;;;;;;;28.67;22.43;;;;;;;;;;5103904;28;20544;-78
2023/01/28 14:50:53;;;;;;;34.50;27.30;;;;;;;;;;5109874;28;20183;-79
2023/01/28 14:53:25;;;;;;;38.47;26.20;;;;;;;;;;5105143;28;20212;-77
2023/01/28 14:55:52;;;;;;;34.30;25.17;;;;;;;;;;5106834;28;20173;-78